首页
METAR-TAF:

METAR-TAF

机场 :

Knock, 爱尔兰

纬度: 53-54-37N, 经度: 008-49-05W, 海拔: 203米

当前天气观测

该预报发布于22分钟前的10:00 UTC
风速5节,风向,在北转东北东南之间变化
温度 19°C
湿度 88%
气压 1016 hPa
能见度10公里或以上
少量云层高于1100英尺

METAR: EIKN 141000Z 08005KT 030V140 9999 FEW011 19/17 Q1016 NOSIG

时间: 11:22 (10:22 UTC)

预报

该预报发布于5小时和22分钟前的05:00 UTC
预报有效从14日的 06点(UTC)到 15日的 06点(UTC)
风速8节,风向北转东北
能见度10公里或以上
少量云层高于1000英尺
多云层高于4000英尺
成为
从 14日的 06点(UTC)到 14日的 08点(UTC)
风速7节,风向东转东北
短暂存在
从 14日的 06点(UTC)到 14日的 09点(UTC)
能見度: 3000
轻雾
短暂存在
从 14日的 06点(UTC)到 14日的 10点(UTC)
多云层高于400英尺
短暂存在
从 14日的 10点(UTC)到 14日的 12点(UTC)
多云层高于1000英尺
成为
从 14日的 18点(UTC)到 14日的 20点(UTC)
风速3节,风向多变
成为
从 15日的 00点(UTC)到 15日的 02点(UTC)
能見度: 3000
轻雾

TAF: EIKN 140500Z 1406/1506 02008KT 9999 FEW010 BKN040 BECMG 1406/1408 07007KT TEMPO 1406/1409 3000 BR TEMPO 1406/1410 BKN004 TEMPO 1410/1412 BKN010 BECMG 1418/1420 VRB03KT BECMG 1500/1502 3000 BR

超过4000个机场的气象观测和天气预报(METAR&TAF报告)。

可查询的气象台以黄色和红色小点在地图上表示。

将鼠标移到小点上方,可查看气象台名称。

然后点击查看天气观测和预报。

如需切换地图:点击带黑十字的绿色按钮放大地图;点击带横线的绿色按钮缩小地图;或者点击绿色箭头查看邻近地区的地图。


METAR-TAF: